createdAt,value
2018-06-05T00:00:45.579Z,98639.94
2018-06-05T00:03:57.492Z,98646.17
2018-06-05T00:07:02.280Z,98645.50
2018-06-05T00:10:07.894Z,98642.19
2018-06-05T00:13:11.764Z,98644.67
2018-06-05T00:16:16.054Z,98643.92
2018-06-05T00:19:21.573Z,98642.34
2018-06-05T00:22:27.366Z,98637.33
2018-06-05T00:25:31.245Z,98633.42
2018-06-05T00:28:35.259Z,98641.20
2018-06-05T00:31:39.510Z,98639.45
2018-06-05T00:34:45.357Z,98641.23
2018-06-05T00:37:49.025Z,98644.30
2018-06-05T00:40:52.674Z,98641.20
2018-06-05T00:43:57.288Z,98639.72
2018-06-05T00:47:01.633Z,98634.49
2018-06-05T00:50:05.557Z,98637.45
2018-06-05T00:53:10.264Z,98632.09
2018-06-05T00:56:15.030Z,98640.64
2018-06-05T00:59:19.029Z,98640.81
2018-06-05T01:02:24.691Z,98634.56
2018-06-05T01:05:29.485Z,98632.30
2018-06-05T01:08:33.719Z,98637.83
2018-06-05T01:11:37.591Z,98636.33
2018-06-05T01:14:41.695Z,98635.44
2018-06-05T01:17:46.204Z,98636.87
2018-06-05T01:20:49.833Z,98631.60
2018-06-05T01:23:53.779Z,98633.39
2018-06-05T01:26:57.609Z,98635.10
2018-06-05T01:30:04.153Z,98641.91
2018-06-05T01:33:09.118Z,98635.08
2018-06-05T01:36:12.987Z,98637.17
2018-06-05T01:39:16.852Z,98641.17
2018-06-05T01:42:21.519Z,98643.41
2018-06-05T01:45:26.124Z,98640.69
2018-06-05T01:48:30.987Z,98640.81
2018-06-05T01:51:35.996Z,98642.03
2018-06-05T01:54:40.546Z,98640.00
2018-06-05T01:57:45.143Z,98641.83
2018-06-05T02:00:49.240Z,98644.06
2018-06-05T02:03:55.603Z,98645.17
2018-06-05T02:07:02.474Z,98644.16
2018-06-05T02:10:08.060Z,98646.19
2018-06-05T02:13:12.826Z,98649.34
2018-06-05T02:16:16.533Z,98649.45
2018-06-05T02:19:20.293Z,98650.27
2018-06-05T02:22:24.829Z,98659.69
2018-06-05T02:25:29.442Z,98659.28
2018-06-05T02:28:33.344Z,98657.36
2018-06-05T02:31:37.249Z,98657.45
2018-06-05T02:34:41.756Z,98650.37
2018-06-05T02:37:45.490Z,98649.56
2018-06-05T02:40:53.384Z,98650.06
2018-06-05T02:43:57.791Z,98654.22
2018-06-05T02:47:02.405Z,98651.08
2018-06-05T02:50:10.193Z,98649.77
2018-06-05T02:53:14.973Z,98661.31
2018-06-05T02:56:18.736Z,98664.75
2018-06-05T02:59:23.679Z,98658.58
2018-06-05T03:02:28.161Z,98665.25
2018-06-05T03:05:31.715Z,98663.94
2018-06-05T03:08:35.546Z,98661.20
2018-06-05T03:11:40.752Z,98662.83
2018-06-05T03:14:44.819Z,98657.87
2018-06-05T03:17:51.695Z,98674.16
2018-06-05T03:20:55.964Z,98664.55
2018-06-05T03:24:02.815Z,98668.30
2018-06-05T03:27:06.892Z,98660.80
2018-06-05T03:30:10.724Z,98675.58
2018-06-05T03:33:14.632Z,98675.98
2018-06-05T03:36:18.253Z,98675.06
2018-06-05T03:39:22.244Z,98671.02
2018-06-05T03:42:25.852Z,98676.89
2018-06-05T03:45:30.152Z,98674.27
2018-06-05T03:48:35.746Z,98679.83
2018-06-05T03:51:41.346Z,98685.28
2018-06-05T03:54:45.025Z,98687.80
2018-06-05T03:57:48.767Z,98683.12
2018-06-05T04:00:52.427Z,98684.22
2018-06-05T04:03:58.287Z,98684.45
2018-06-05T04:07:02.536Z,98680.59
2018-06-05T04:10:06.334Z,98688.15
2018-06-05T04:13:12.415Z,98683.87
2018-06-05T04:16:18.122Z,98678.70
2018-06-05T04:19:21.879Z,98678.58
2018-06-05T04:22:27.407Z,98675.66
2018-06-05T04:25:32.225Z,98680.92
2018-06-05T04:28:36.041Z,98684.61
2018-06-05T04:31:43.641Z,98689.16
2018-06-05T04:34:48.411Z,98690.03
2018-06-05T04:37:52.853Z,98693.77
2018-06-05T04:40:56.787Z,98695.59
2018-06-05T04:44:02.570Z,98693.98
2018-06-05T04:47:06.443Z,98692.03
2018-06-05T04:50:12.350Z,98695.28
2018-06-05T04:53:17.035Z,98694.36
2018-06-05T04:56:21.856Z,98697.03
2018-06-05T04:59:26.703Z,98706.06
2018-06-05T05:02:30.994Z,98709.72
2018-06-05T05:05:34.796Z,98706.52
2018-06-05T05:08:39.515Z,98704.52
2018-06-05T05:11:44.095Z,98704.84
2018-06-05T05:14:54.325Z,98708.64
2018-06-05T05:17:59.823Z,98704.80
2018-06-05T05:21:06.083Z,98708.83
2018-06-05T05:24:09.965Z,98710.78
2018-06-05T05:27:13.858Z,98709.18
2018-06-05T05:30:17.896Z,98708.92
2018-06-05T05:33:22.615Z,98716.17
2018-06-05T05:36:28.677Z,98709.66
2018-06-05T05:39:32.684Z,98718.41
2018-06-05T05:42:37.251Z,98725.83
2018-06-05T05:45:45.107Z,98727.50
2018-06-05T05:48:52.713Z,98724.10
2018-06-05T05:51:56.702Z,98721.73
2018-06-05T05:55:01.076Z,98730.45
2018-06-05T05:58:05.846Z,98724.49
2018-06-05T06:01:09.704Z,98725.64
2018-06-05T06:04:16.249Z,98725.58
2018-06-05T06:07:19.433Z,98736.07
2018-06-05T06:10:22.786Z,98736.82
2018-06-05T06:13:27.333Z,98739.88
2018-06-05T06:16:33.055Z,98740.67
2018-06-05T06:19:42.766Z,98746.31
2018-06-05T06:22:48.264Z,98750.13
2018-06-05T06:25:52.687Z,98745.47
2018-06-05T06:29:01.198Z,98750.36
2018-06-05T06:32:05.154Z,98752.26
2018-06-05T06:35:09.261Z,98754.43
2018-06-05T06:38:14.735Z,98759.13
2018-06-05T06:41:24.560Z,98755.04
2018-06-05T06:44:28.743Z,98745.09
2018-06-05T06:47:33.073Z,98753.01
2018-06-05T06:50:36.520Z,98752.81
2018-06-05T06:53:40.397Z,98755.39
2018-06-05T06:56:44.389Z,98753.77
2018-06-05T06:59:49.042Z,98748.73
2018-06-05T07:02:53.236Z,98747.02
2018-06-05T07:05:58.177Z,98744.04
2018-06-05T07:09:02.062Z,98754.91
2018-06-05T07:12:06.584Z,98758.00
2018-06-05T07:15:11.313Z,98751.13
2018-06-05T07:18:15.204Z,98754.62
2018-06-05T07:21:19.826Z,98744.80
2018-06-05T07:24:23.426Z,98749.08
2018-06-05T07:27:29.184Z,98743.06
2018-06-05T07:30:36.135Z,98735.39
2018-06-05T07:33:39.756Z,98736.00
2018-06-05T07:36:43.253Z,98737.08
2018-06-05T07:39:47.022Z,98731.83
2018-06-05T07:42:50.783Z,98725.72
2018-06-05T07:45:54.061Z,98739.30
2018-06-05T07:48:58.460Z,98737.02
2018-06-05T07:52:02.115Z,98726.91
2018-06-05T07:55:05.953Z,98727.66
2018-06-05T07:58:09.146Z,98735.55
2018-06-05T08:01:12.230Z,98731.56
2018-06-05T08:04:16.375Z,98737.33
2018-06-05T08:07:19.526Z,98733.08
2018-06-05T08:10:22.581Z,98734.83
2018-06-05T08:13:29.465Z,98737.00
2018-06-05T08:16:33.983Z,98743.98
2018-06-05T08:19:38.249Z,98739.95
2018-06-05T08:22:54.691Z,98737.57
2018-06-05T08:26:01.253Z,98739.06
2018-06-05T08:29:04.548Z,98738.88
2018-06-05T08:32:16.859Z,98737.24
2018-06-05T08:35:21.120Z,98735.16
2018-06-05T08:38:25.297Z,98734.43
2018-06-05T08:41:29.432Z,98734.20
2018-06-05T08:44:33.421Z,98741.06
2018-06-05T08:47:37.506Z,98737.45
2018-06-05T08:50:42.590Z,98753.34
2018-06-05T08:53:45.705Z,98747.09
2018-06-05T08:56:48.905Z,98752.47
2018-06-05T08:59:53.054Z,98748.75
2018-06-05T09:02:59.513Z,98753.25
2018-06-05T09:06:03.680Z,98745.06
2018-06-05T09:09:08.990Z,98743.08
2018-06-05T09:12:12.056Z,98745.55
2018-06-05T09:15:15.244Z,98741.13
2018-06-05T09:18:18.466Z,98745.73
2018-06-05T09:21:22.922Z,98746.06
2018-06-05T09:24:26.361Z,98745.45
2018-06-05T09:27:29.891Z,98742.33
2018-06-05T09:30:33.287Z,98745.02
2018-06-05T09:33:37.383Z,98744.47
2018-06-05T09:36:40.757Z,98742.44
2018-06-05T09:39:44.917Z,98750.06
2018-06-05T09:42:49.020Z,98742.07
2018-06-05T09:45:52.262Z,98738.17
2018-06-05T09:48:55.396Z,98735.67
2018-06-05T09:51:58.482Z,98736.48
2018-06-05T09:55:01.624Z,98738.61
2018-06-05T09:58:05.243Z,98731.46
2018-06-05T10:01:09.273Z,98729.20
2018-06-05T10:04:12.408Z,98727.70
2018-06-05T10:07:15.494Z,98726.34
2018-06-05T10:10:19.601Z,98726.83
2018-06-05T10:13:22.793Z,98720.18
2018-06-05T10:16:26.925Z,98718.98
2018-06-05T10:19:29.943Z,98717.67
2018-06-05T10:22:36.846Z,98718.24
2018-06-05T10:25:42.004Z,98710.94
2018-06-05T10:28:47.138Z,98716.45
2018-06-05T10:31:53.620Z,98711.56
2018-06-05T10:34:58.687Z,98701.56
2018-06-05T10:38:01.845Z,98705.65
2018-06-05T10:41:05.072Z,98700.06
2018-06-05T10:44:09.213Z,98700.33
2018-06-05T10:47:12.496Z,98696.84
2018-06-05T10:50:18.847Z,98700.31
2018-06-05T10:53:26.379Z,98697.00
2018-06-05T10:56:31.000Z,98692.05
2018-06-05T10:59:34.867Z,98690.17
2018-06-05T11:02:38.443Z,98686.42
2018-06-05T11:05:42.031Z,98682.20
2018-06-05T11:08:56.841Z,98694.80
2018-06-05T11:12:01.572Z,98687.48
2018-06-05T11:15:05.253Z,98685.28
2018-06-05T11:18:08.436Z,98674.41
2018-06-05T11:21:12.234Z,98675.17
2018-06-05T11:24:19.112Z,98674.77
2018-06-05T11:27:22.256Z,98666.95
2018-06-05T11:30:31.645Z,98671.45
2018-06-05T11:33:35.818Z,98679.48
2018-06-05T11:36:39.469Z,98665.55
2018-06-05T11:39:42.686Z,98670.48
2018-06-05T11:42:47.656Z,98653.73
2018-06-05T11:45:51.874Z,98658.56
2018-06-05T11:48:55.971Z,98655.28
2018-06-05T11:51:59.167Z,98652.73
2018-06-05T11:55:02.396Z,98647.72
2018-06-05T11:58:06.093Z,98649.69
2018-06-05T12:01:09.627Z,98641.50
2018-06-05T12:04:21.284Z,98639.25
2018-06-05T12:07:24.461Z,98641.17
2018-06-05T12:10:27.546Z,98637.00
2018-06-05T12:13:30.969Z,98644.70
2018-06-05T12:16:36.426Z,98639.74
2018-06-05T12:19:40.102Z,98629.05
2018-06-05T12:22:43.760Z,98620.14
2018-06-05T12:25:46.867Z,98620.44
2018-06-05T12:28:53.155Z,98617.11
2018-06-05T12:31:56.328Z,98618.39
2018-06-05T12:34:59.523Z,98615.64
2018-06-05T12:38:02.665Z,98610.20
2018-06-05T12:41:06.854Z,98605.27
2018-06-05T12:44:11.174Z,98603.63
2018-06-05T12:47:15.068Z,98594.03
2018-06-05T12:50:19.569Z,98593.53
2018-06-05T12:53:25.020Z,98595.00
2018-06-05T12:56:29.240Z,98589.27
2018-06-05T12:59:34.393Z,98590.66
2018-06-05T13:02:37.910Z,98587.80
2018-06-05T13:05:42.692Z,98584.53
2018-06-05T13:08:48.083Z,98582.53
2018-06-05T13:11:52.241Z,98579.52
2018-06-05T13:14:56.529Z,98580.25
2018-06-05T13:17:59.980Z,98577.51
2018-06-05T13:21:04.682Z,98578.14
2018-06-05T13:24:07.856Z,98575.95
2018-06-05T13:27:10.935Z,98575.47
2018-06-05T13:30:17.455Z,98571.72
2018-06-05T13:33:22.038Z,98574.08
2018-06-05T13:36:25.343Z,98569.31
2018-06-05T13:39:28.839Z,98566.93
2018-06-05T13:42:34.581Z,98567.09
2018-06-05T13:45:39.135Z,98564.29
2018-06-05T13:48:47.325Z,98570.16
2018-06-05T13:51:51.991Z,98560.45
2018-06-05T13:54:56.623Z,98558.89
2018-06-05T13:58:01.146Z,98557.80
2018-06-05T14:01:05.642Z,98558.80
2018-06-05T14:04:10.971Z,98552.73
2018-06-05T14:07:14.634Z,98548.48
2018-06-05T14:10:19.251Z,98547.80
2018-06-05T14:13:22.864Z,98546.83
2018-06-05T14:16:27.456Z,98558.56
2018-06-05T14:19:32.981Z,98550.25
2018-06-05T14:22:37.282Z,98544.93
2018-06-05T14:25:40.496Z,98539.46
2018-06-05T14:28:43.810Z,98546.95
2018-06-05T14:31:47.000Z,98545.73
2018-06-05T14:34:50.095Z,98547.84
2018-06-05T14:37:53.289Z,98548.68
2018-06-05T14:40:56.342Z,98545.52
2018-06-05T14:44:00.536Z,98535.67
2018-06-05T14:47:05.668Z,98536.34
2018-06-05T14:50:10.506Z,98529.28
2018-06-05T14:53:14.997Z,98540.34
2018-06-05T14:56:19.455Z,98530.99
2018-06-05T14:59:22.944Z,98531.55
2018-06-05T15:02:26.626Z,98529.30
2018-06-05T15:05:30.137Z,98525.60
2018-06-05T15:08:34.202Z,98517.92
2018-06-05T15:11:38.173Z,98511.54
2018-06-05T15:14:43.666Z,98513.05
2018-06-05T15:17:47.291Z,98508.27
2018-06-05T15:20:50.319Z,98510.11
2018-06-05T15:23:57.218Z,98508.96
2018-06-05T15:27:03.838Z,98513.08
2018-06-05T15:30:08.158Z,98512.98
2018-06-05T15:33:13.446Z,98504.09
2018-06-05T15:36:23.303Z,98506.47
2018-06-05T15:39:26.625Z,98502.00
2018-06-05T15:42:30.170Z,98510.98
2018-06-05T15:45:34.675Z,98505.74
2018-06-05T15:48:39.019Z,98511.70
2018-06-05T15:51:43.464Z,98509.58
2018-06-05T15:54:48.046Z,98504.78
2018-06-05T15:57:51.677Z,98509.62
2018-06-05T16:00:55.410Z,98507.25
2018-06-05T16:03:59.581Z,98501.84
2018-06-05T16:07:03.362Z,98496.34
2018-06-05T16:10:06.815Z,98495.27
2018-06-05T16:13:11.554Z,98491.73
2018-06-05T16:16:14.992Z,98493.89
2018-06-05T16:19:18.425Z,98497.42
2018-06-05T16:22:21.674Z,98490.72
2018-06-05T16:25:24.827Z,98493.39
2018-06-05T16:28:29.164Z,98494.84
2018-06-05T16:31:34.400Z,98491.02
2018-06-05T16:34:37.513Z,98486.14
2018-06-05T16:37:40.742Z,98488.02
2018-06-05T16:40:43.901Z,98490.70
2018-06-05T16:43:47.093Z,98489.17
2018-06-05T16:46:50.438Z,98491.91
2018-06-05T16:49:53.473Z,98484.13
2018-06-05T16:52:56.735Z,98480.83
2018-06-05T16:55:59.951Z,98487.14
2018-06-05T16:59:03.085Z,98487.62
2018-06-05T17:02:06.196Z,98490.75
2018-06-05T17:05:09.486Z,98492.07
2018-06-05T17:08:13.149Z,98501.61
2018-06-05T17:11:16.430Z,98497.48
2018-06-05T17:14:20.677Z,98498.25
2018-06-05T17:17:25.782Z,98497.54
2018-06-05T17:20:29.045Z,98499.55
2018-06-05T17:23:33.564Z,98497.33
2018-06-05T17:26:36.608Z,98497.41
2018-06-05T17:29:39.833Z,98501.08
2018-06-05T17:32:42.931Z,98505.63
2018-06-05T17:35:46.199Z,98500.58
2018-06-05T17:38:50.437Z,98499.25
2018-06-05T17:41:53.568Z,98514.19
2018-06-05T17:44:56.736Z,98500.23
2018-06-05T17:47:59.806Z,98500.74
2018-06-05T17:51:03.001Z,98500.83
2018-06-05T17:54:06.076Z,98508.19
2018-06-05T17:57:09.183Z,98515.89
2018-06-05T18:00:12.383Z,98511.64
2018-06-05T18:03:15.562Z,98520.36
2018-06-05T18:06:18.720Z,98524.26
2018-06-05T18:09:21.881Z,98524.28
2018-06-05T18:12:25.126Z,98530.47
2018-06-05T18:15:28.309Z,98526.59
2018-06-05T18:18:31.792Z,98530.76
2018-06-05T18:21:34.983Z,98535.50
2018-06-05T18:24:38.459Z,98535.30
2018-06-05T18:27:42.145Z,98543.61
2018-06-05T18:30:45.269Z,98540.52
2018-06-05T18:33:48.472Z,98542.18
2018-06-05T18:36:51.541Z,98547.36
2018-06-05T18:39:54.969Z,98538.34
2018-06-05T18:42:58.330Z,98540.76
2018-06-05T18:46:06.310Z,98542.61
2018-06-05T18:49:09.515Z,98554.02
2018-06-05T18:52:12.757Z,98557.84
2018-06-05T18:55:16.034Z,98559.87
2018-06-05T18:58:18.987Z,98560.05
2018-06-05T19:01:23.089Z,98565.03
2018-06-05T19:04:32.382Z,98578.42
2018-06-05T19:07:35.608Z,98576.39
2018-06-05T19:10:39.306Z,98581.76
2018-06-05T19:13:42.397Z,98583.87
2018-06-05T19:16:46.830Z,98589.84
2018-06-05T19:19:50.080Z,98592.70
2018-06-05T19:22:53.116Z,98597.68
2018-06-05T19:25:56.265Z,98604.11
2018-06-05T19:28:59.359Z,98614.17
2018-06-05T19:32:02.656Z,98616.02
2018-06-05T19:35:05.891Z,98620.06
2018-06-05T19:38:09.194Z,98624.18
2018-06-05T19:41:12.425Z,98629.14
2018-06-05T19:44:15.652Z,98633.62
2018-06-05T19:47:18.829Z,98639.73
2018-06-05T19:50:21.899Z,98645.91
2018-06-05T19:53:24.925Z,98655.66
2018-06-05T19:56:28.092Z,98661.77
2018-06-05T19:59:31.116Z,98665.53
2018-06-05T20:02:34.236Z,98671.95
2018-06-05T20:05:37.552Z,98669.61
2018-06-05T20:08:40.626Z,98671.64
2018-06-05T20:11:43.720Z,98678.88
2018-06-05T20:14:47.085Z,98681.15
2018-06-05T20:17:53.808Z,98678.73
2018-06-05T20:20:56.919Z,98684.61
2018-06-05T20:24:00.621Z,98697.17
2018-06-05T20:27:03.762Z,98694.86
2018-06-05T20:30:06.895Z,98697.84
2018-06-05T20:33:10.946Z,98703.28
2018-06-05T20:36:15.019Z,98704.67
2018-06-05T20:39:18.110Z,98713.02
2018-06-05T20:42:21.321Z,98719.77
2018-06-05T20:45:24.424Z,98719.82
2018-06-05T20:48:28.494Z,98728.17
2018-06-05T20:51:31.600Z,98724.14
2018-06-05T20:54:34.660Z,98733.36
2018-06-05T20:57:37.659Z,98731.38
2018-06-05T21:00:41.821Z,98734.98
2018-06-05T21:03:45.090Z,98737.36
2018-06-05T21:06:49.231Z,98738.58
2018-06-05T21:09:53.240Z,98744.25
2018-06-05T21:12:56.271Z,98748.68
2018-06-05T21:15:59.344Z,98750.23
2018-06-05T21:19:03.411Z,98745.08
2018-06-05T21:22:06.558Z,98748.75
2018-06-05T21:25:09.829Z,98749.78
2018-06-05T21:28:13.930Z,98756.98
2018-06-05T21:31:17.030Z,98757.42
2018-06-05T21:34:20.183Z,98757.20
2018-06-05T21:37:23.364Z,98759.11
2018-06-05T21:40:26.508Z,98756.25
2018-06-05T21:43:29.520Z,98755.00
2018-06-05T21:46:32.664Z,98754.48
2018-06-05T21:49:35.816Z,98757.92
2018-06-05T21:52:38.937Z,98763.14
2018-06-05T21:55:42.311Z,98762.25
2018-06-05T21:58:45.542Z,98753.66
2018-06-05T22:01:49.215Z,98747.64
2018-06-05T22:04:52.639Z,98750.22
2018-06-05T22:07:56.302Z,98748.48
2018-06-05T22:10:59.504Z,98750.97
2018-06-05T22:14:04.623Z,98744.78
2018-06-05T22:17:07.884Z,98749.03
2018-06-05T22:20:11.140Z,98748.02
2018-06-05T22:23:14.366Z,98753.39
2018-06-05T22:26:17.688Z,98759.06
2018-06-05T22:29:22.849Z,98760.02
2018-06-05T22:32:26.117Z,98755.59
2018-06-05T22:35:29.265Z,98755.73
2018-06-05T22:38:32.420Z,98750.66
2018-06-05T22:41:35.527Z,98753.08
2018-06-05T22:44:38.684Z,98747.50
2018-06-05T22:47:41.812Z,98745.60
2018-06-05T22:50:45.999Z,98739.78
2018-06-05T22:53:49.081Z,98743.65
2018-06-05T22:56:52.393Z,98744.41
2018-06-05T22:59:55.900Z,98743.91
2018-06-05T23:02:59.024Z,98743.97
2018-06-05T23:06:02.312Z,98742.39
2018-06-05T23:09:06.696Z,98744.27
2018-06-05T23:12:14.217Z,98751.11
2018-06-05T23:15:17.741Z,98750.39
2018-06-05T23:18:22.111Z,98742.78
2018-06-05T23:21:26.324Z,98745.27
2018-06-05T23:24:29.419Z,98743.13
2018-06-05T23:27:32.591Z,98752.94
2018-06-05T23:30:37.686Z,98748.85
2018-06-05T23:33:44.516Z,98753.63
2018-06-05T23:36:48.588Z,98762.02
2018-06-05T23:39:52.619Z,98765.13
2018-06-05T23:42:55.702Z,98753.31
2018-06-05T23:45:59.701Z,98757.45
2018-06-05T23:49:03.848Z,98756.19
2018-06-05T23:52:06.945Z,98755.91
2018-06-05T23:55:11.156Z,98756.73
2018-06-05T23:58:15.275Z,98749.33
